RYR269 EGSS-EDFH
Flight info
| Callsign | RYR269 |
|---|---|
| Flight time | 1h 0m |
| Altitude | 37000 |
| Route | CLN M84 KONAN UL607 SPI/N0352F230 Q50 ARCKY L607 EMGOD |
| Aircraft | B738/M-SDE2E3FGHIRWXY/LB1 |
Departure
| Time | 2026-05-05 18:02 |
|---|---|
| Airport | London Stansted Airport (EGSS) |
Arrival
| Time | 2026-05-05 19:03 |
|---|---|
| Airport | Frankfurt-Hahn Airport (EDFH) |
| Time | Latitude | Longitude | Altitude | Speed | Heading |
|---|---|---|---|---|---|
| 2026-05-05 17:36 | 51.89194 | 0.25665 | 356 ft | 0 kts | 223° |
| 2026-05-05 17:50 | 51.89202 | 0.25677 | 361 ft | 4 kts | 223° |
| 2026-05-05 17:51 | 51.89221 | 0.25707 | 357 ft | 4 kts | 223° |
| 2026-05-05 17:51 | 51.89236 | 0.25729 | 360 ft | 4 kts | 254° |
| 2026-05-05 17:51 | 51.89231 | 0.25759 | 361 ft | 3 kts | 313° |
| 2026-05-05 17:51 | 51.89218 | 0.25782 | 361 ft | 0 kts | 313° |
| 2026-05-05 17:55 | 51.89225 | 0.25769 | 359 ft | 4 kts | 313° |
| 2026-05-05 17:55 | 51.89268 | 0.25695 | 351 ft | 13 kts | 313° |
| 2026-05-05 17:56 | 51.89328 | 0.25591 | 357 ft | 13 kts | 313° |
| 2026-05-05 17:56 | 51.89309 | 0.25477 | 351 ft | 12 kts | 222° |
| 2026-05-05 17:56 | 51.89243 | 0.25378 | 355 ft | 15 kts | 223° |
| 2026-05-05 17:56 | 51.89150 | 0.25239 | 354 ft | 22 kts | 223° |
| 2026-05-05 17:57 | 51.89031 | 0.25059 | 356 ft | 23 kts | 223° |
| 2026-05-05 17:57 | 51.88914 | 0.24885 | 358 ft | 22 kts | 222° |
| 2026-05-05 17:57 | 51.88799 | 0.24713 | 354 ft | 22 kts | 223° |
| 2026-05-05 17:57 | 51.88689 | 0.24546 | 347 ft | 22 kts | 223° |
| 2026-05-05 17:58 | 51.88576 | 0.24377 | 347 ft | 22 kts | 223° |
| 2026-05-05 17:58 | 51.88466 | 0.24212 | 344 ft | 21 kts | 223° |
| 2026-05-05 17:58 | 51.88359 | 0.24052 | 344 ft | 21 kts | 223° |
| 2026-05-05 17:58 | 51.88256 | 0.23896 | 349 ft | 21 kts | 223° |
| 2026-05-05 17:59 | 51.88139 | 0.23722 | 337 ft | 25 kts | 223° |
| 2026-05-05 17:59 | 51.88012 | 0.23532 | 339 ft | 24 kts | 223° |
| 2026-05-05 17:59 | 51.87894 | 0.23354 | 340 ft | 23 kts | 223° |
| 2026-05-05 17:59 | 51.87780 | 0.23182 | 339 ft | 21 kts | 223° |
| 2026-05-05 18:00 | 51.87733 | 0.23033 | 339 ft | 16 kts | 293° |
| 2026-05-05 18:00 | 51.87805 | 0.22905 | 339 ft | 15 kts | 313° |
| 2026-05-05 18:00 | 51.87884 | 0.22768 | 332 ft | 18 kts | 313° |
| 2026-05-05 18:00 | 51.87973 | 0.22694 | 333 ft | 13 kts | 25° |
| 2026-05-05 18:01 | 51.87986 | 0.22710 | 329 ft | 0 kts | 40° |
| 2026-05-05 18:01 | 51.88057 | 0.22813 | 332 ft | 45 kts | 43° |
| 2026-05-05 18:01 | 51.88464 | 0.23422 | 345 ft | 111 kts | 43° |
| 2026-05-05 18:01 | 51.89160 | 0.24474 | 406 ft | 157 kts | 42° |
| 2026-05-05 18:02 | 51.90074 | 0.25628 | 868 ft | 173 kts | 30° |
| 2026-05-05 18:02 | 51.91099 | 0.26580 | 1671 ft | 173 kts | 44° |
| 2026-05-05 18:02 | 51.91618 | 0.28344 | 2185 ft | 188 kts | 79° |
| 2026-05-05 18:02 | 51.91628 | 0.30594 | 2398 ft | 212 kts | 92° |
| 2026-05-05 18:03 | 51.91238 | 0.33007 | 2617 ft | 232 kts | 111° |
| 2026-05-05 18:03 | 51.90523 | 0.35427 | 2902 ft | 248 kts | 113° |
| 2026-05-05 18:03 | 51.89761 | 0.38024 | 3288 ft | 261 kts | 113° |
| 2026-05-05 18:03 | 51.89011 | 0.40728 | 3951 ft | 264 kts | 105° |
| 2026-05-05 18:04 | 51.88734 | 0.43661 | 4709 ft | 265 kts | 92° |
| 2026-05-05 18:04 | 51.88615 | 0.46659 | 5407 ft | 269 kts | 91° |
| 2026-05-05 18:04 | 51.88490 | 0.49699 | 5941 ft | 273 kts | 91° |
| 2026-05-05 18:04 | 51.88352 | 0.52780 | 5983 ft | 276 kts | 92° |
| 2026-05-05 18:05 | 51.88202 | 0.55875 | 5984 ft | 275 kts | 92° |
| 2026-05-05 18:05 | 51.88044 | 0.58960 | 5992 ft | 275 kts | 92° |
| 2026-05-05 18:05 | 51.87880 | 0.62041 | 5994 ft | 276 kts | 92° |
| 2026-05-05 18:05 | 51.87711 | 0.65132 | 5984 ft | 276 kts | 93° |
| 2026-05-05 18:06 | 51.87539 | 0.68231 | 5979 ft | 276 kts | 93° |
| 2026-05-05 18:06 | 51.87481 | 0.69272 | 5979 ft | 276 kts | 93° |
| 2026-05-05 18:06 | 51.87189 | 0.74412 | 5979 ft | 276 kts | 93° |
| 2026-05-05 18:06 | 51.87011 | 0.77504 | 5966 ft | 276 kts | 93° |
| 2026-05-05 18:07 | 51.86833 | 0.80598 | 5989 ft | 276 kts | 93° |
| 2026-05-05 18:07 | 51.86654 | 0.83680 | 5982 ft | 276 kts | 93° |
| 2026-05-05 18:07 | 51.86474 | 0.86766 | 5979 ft | 275 kts | 93° |
| 2026-05-05 18:07 | 51.86293 | 0.89844 | 5985 ft | 274 kts | 93° |
| 2026-05-05 18:08 | 51.86113 | 0.92913 | 5982 ft | 274 kts | 93° |
| 2026-05-05 18:08 | 51.85931 | 0.95977 | 5983 ft | 274 kts | 93° |
| 2026-05-05 18:08 | 51.85749 | 0.99042 | 6001 ft | 273 kts | 93° |
| 2026-05-05 18:08 | 51.85568 | 1.02101 | 5987 ft | 273 kts | 93° |
| 2026-05-05 18:09 | 51.85384 | 1.05162 | 5984 ft | 273 kts | 93° |
| 2026-05-05 18:09 | 51.85199 | 1.08225 | 5996 ft | 273 kts | 93° |
| 2026-05-05 18:09 | 51.85014 | 1.11282 | 5992 ft | 274 kts | 93° |
| 2026-05-05 18:09 | 51.84549 | 1.14258 | 5971 ft | 278 kts | 117° |
| 2026-05-05 18:10 | 51.83239 | 1.16577 | 6170 ft | 286 kts | 143° |
| 2026-05-05 18:10 | 51.81574 | 1.18369 | 6903 ft | 287 kts | 146° |
| 2026-05-05 18:10 | 51.79898 | 1.20131 | 7731 ft | 288 kts | 145° |
| 2026-05-05 18:10 | 51.78204 | 1.21903 | 8501 ft | 291 kts | 146° |
| 2026-05-05 18:11 | 51.76491 | 1.23697 | 9263 ft | 297 kts | 146° |
| 2026-05-05 18:11 | 51.74744 | 1.25530 | 10028 ft | 301 kts | 146° |
| 2026-05-05 18:11 | 51.72959 | 1.27407 | 10515 ft | 316 kts | 146° |
| 2026-05-05 18:11 | 51.71051 | 1.29417 | 10770 ft | 337 kts | 146° |
| 2026-05-05 18:12 | 51.69065 | 1.31506 | 11424 ft | 343 kts | 146° |
| 2026-05-05 18:12 | 51.67062 | 1.33610 | 12257 ft | 344 kts | 147° |
| 2026-05-05 18:12 | 51.64925 | 1.35375 | 13108 ft | 347 kts | 160° |
| 2026-05-05 18:12 | 51.62592 | 1.36343 | 13954 ft | 349 kts | 172° |
| 2026-05-05 18:13 | 51.60160 | 1.36613 | 14712 ft | 352 kts | 178° |
| 2026-05-05 18:13 | 51.58539 | 1.36688 | 15205 ft | 354 kts | 178° |
| 2026-05-05 18:13 | 51.56055 | 1.36784 | 15959 ft | 358 kts | 178° |
| 2026-05-05 18:13 | 51.53548 | 1.36895 | 16708 ft | 362 kts | 178° |
| 2026-05-05 18:14 | 51.51017 | 1.37033 | 17461 ft | 366 kts | 176° |
| 2026-05-05 18:14 | 51.48468 | 1.37186 | 18201 ft | 369 kts | 176° |
| 2026-05-05 18:14 | 51.45889 | 1.37410 | 18828 ft | 373 kts | 171° |
| 2026-05-05 18:14 | 51.43440 | 1.38759 | 19388 ft | 376 kts | 148° |
| 2026-05-05 18:15 | 51.41420 | 1.41412 | 20019 ft | 378 kts | 130° |
| 2026-05-05 18:15 | 51.39775 | 1.44716 | 20622 ft | 383 kts | 127° |
| 2026-05-05 18:15 | 51.38153 | 1.48149 | 21119 ft | 389 kts | 127° |
| 2026-05-05 18:15 | 51.36523 | 1.51632 | 21716 ft | 393 kts | 127° |
| 2026-05-05 18:16 | 51.34868 | 1.55149 | 22289 ft | 397 kts | 127° |
| 2026-05-05 18:16 | 51.33186 | 1.58686 | 22877 ft | 401 kts | 128° |
| 2026-05-05 18:16 | 51.31650 | 1.62417 | 23463 ft | 404 kts | 117° |
| 2026-05-05 18:16 | 51.30600 | 1.66588 | 24048 ft | 404 kts | 109° |
| 2026-05-05 18:17 | 51.29718 | 1.70857 | 24572 ft | 406 kts | 109° |
| 2026-05-05 18:17 | 51.28846 | 1.75166 | 25059 ft | 409 kts | 108° |
| 2026-05-05 18:17 | 51.27965 | 1.79493 | 25538 ft | 411 kts | 109° |
| 2026-05-05 18:17 | 51.27068 | 1.83840 | 26026 ft | 413 kts | 110° |
| 2026-05-05 18:18 | 51.26156 | 1.88197 | 26502 ft | 415 kts | 110° |
| 2026-05-05 18:18 | 51.25230 | 1.92575 | 26956 ft | 417 kts | 110° |
| 2026-05-05 18:18 | 51.24303 | 1.96941 | 27571 ft | 415 kts | 110° |
| 2026-05-05 18:18 | 51.23371 | 2.01307 | 28028 ft | 417 kts | 110° |
| 2026-05-05 18:19 | 51.22427 | 2.05713 | 28309 ft | 422 kts | 110° |
| 2026-05-05 18:19 | 51.21474 | 2.10156 | 28699 ft | 425 kts | 111° |
| 2026-05-05 18:19 | 51.20515 | 2.14613 | 29177 ft | 425 kts | 111° |
| 2026-05-05 18:19 | 51.19554 | 2.19075 | 29607 ft | 427 kts | 110° |
| 2026-05-05 18:20 | 51.18580 | 2.23584 | 29826 ft | 433 kts | 110° |
| 2026-05-05 18:20 | 51.17595 | 2.28133 | 30166 ft | 434 kts | 110° |
| 2026-05-05 18:20 | 51.16611 | 2.32676 | 30564 ft | 434 kts | 111° |
| 2026-05-05 18:20 | 51.15632 | 2.37188 | 31128 ft | 429 kts | 111° |
| 2026-05-05 18:21 | 51.14671 | 2.41605 | 31598 ft | 427 kts | 111° |
| 2026-05-05 18:21 | 51.13687 | 2.46119 | 32010 ft | 426 kts | 111° |
| 2026-05-05 18:21 | 51.12728 | 2.50503 | 32428 ft | 424 kts | 111° |
| 2026-05-05 18:21 | 51.11760 | 2.54923 | 32865 ft | 423 kts | 111° |
| 2026-05-05 18:22 | 51.10791 | 2.59334 | 33265 ft | 422 kts | 112° |
| 2026-05-05 18:22 | 51.09823 | 2.63732 | 33694 ft | 420 kts | 112° |
| 2026-05-05 18:22 | 51.08909 | 2.68134 | 34083 ft | 419 kts | 110° |
| 2026-05-05 18:22 | 51.08080 | 2.72591 | 34327 ft | 421 kts | 109° |
| 2026-05-05 18:23 | 51.07280 | 2.77093 | 34507 ft | 424 kts | 108° |
| 2026-05-05 18:23 | 51.06484 | 2.81615 | 34768 ft | 425 kts | 108° |
| 2026-05-05 18:23 | 51.05684 | 2.86137 | 35041 ft | 425 kts | 108° |
| 2026-05-05 18:23 | 51.04874 | 2.90661 | 35295 ft | 426 kts | 109° |
| 2026-05-05 18:24 | 51.04054 | 2.95188 | 35511 ft | 428 kts | 109° |
| 2026-05-05 18:24 | 51.03225 | 2.99736 | 35736 ft | 429 kts | 109° |
| 2026-05-05 18:24 | 51.02391 | 3.04285 | 35979 ft | 429 kts | 109° |
| 2026-05-05 18:24 | 51.01553 | 3.08838 | 36204 ft | 431 kts | 109° |
| 2026-05-05 18:25 | 51.00709 | 3.13411 | 36421 ft | 432 kts | 109° |
| 2026-05-05 18:25 | 51.00137 | 3.16505 | 36573 ft | 432 kts | 109° |
| 2026-05-05 18:25 | 50.99013 | 3.22572 | 36863 ft | 434 kts | 109° |
| 2026-05-05 18:26 | 50.97291 | 3.31822 | 36872 ft | 439 kts | 109° |
| 2026-05-05 18:26 | 50.95564 | 3.41072 | 36854 ft | 433 kts | 109° |
| 2026-05-05 18:27 | 50.93858 | 3.50161 | 36870 ft | 429 kts | 109° |
| 2026-05-05 18:27 | 50.92146 | 3.59231 | 36866 ft | 430 kts | 109° |
| 2026-05-05 18:28 | 50.89544 | 3.72831 | 36863 ft | 430 kts | 110° |
| 2026-05-05 18:28 | 50.87788 | 3.81878 | 36866 ft | 431 kts | 110° |
| 2026-05-05 18:29 | 50.86020 | 3.90952 | 36872 ft | 431 kts | 110° |
| 2026-05-05 18:29 | 50.84246 | 4.00029 | 36872 ft | 432 kts | 110° |
| 2026-05-05 18:30 | 50.82463 | 4.09111 | 36879 ft | 433 kts | 110° |
| 2026-05-05 18:30 | 50.80670 | 4.18203 | 36881 ft | 433 kts | 110° |
| 2026-05-05 18:31 | 50.78869 | 4.27291 | 36881 ft | 433 kts | 110° |
| 2026-05-05 18:31 | 50.77063 | 4.36365 | 36876 ft | 433 kts | 110° |
| 2026-05-05 18:32 | 50.76155 | 4.40910 | 36605 ft | 435 kts | 110° |
| 2026-05-05 18:32 | 50.75249 | 4.45435 | 36309 ft | 429 kts | 110° |
| 2026-05-05 18:32 | 50.74354 | 4.49906 | 35935 ft | 423 kts | 110° |
| 2026-05-05 18:32 | 50.73470 | 4.54305 | 35530 ft | 419 kts | 110° |
| 2026-05-05 18:33 | 50.72590 | 4.58666 | 35145 ft | 415 kts | 110° |
| 2026-05-05 18:33 | 50.71728 | 4.62979 | 34790 ft | 410 kts | 110° |
| 2026-05-05 18:33 | 50.70896 | 4.67259 | 34417 ft | 406 kts | 110° |
| 2026-05-05 18:33 | 50.70079 | 4.71498 | 34029 ft | 402 kts | 110° |
| 2026-05-05 18:34 | 50.69268 | 4.75692 | 33633 ft | 398 kts | 110° |
| 2026-05-05 18:34 | 50.68463 | 4.79841 | 33203 ft | 394 kts | 110° |
| 2026-05-05 18:34 | 50.67663 | 4.83945 | 32823 ft | 389 kts | 110° |
| 2026-05-05 18:34 | 50.66869 | 4.87995 | 32451 ft | 385 kts | 110° |
| 2026-05-05 18:35 | 50.66081 | 4.92003 | 32070 ft | 381 kts | 110° |
| 2026-05-05 18:35 | 50.65286 | 4.95956 | 31745 ft | 376 kts | 110° |
| 2026-05-05 18:35 | 50.64486 | 4.99865 | 31372 ft | 373 kts | 110° |
| 2026-05-05 18:35 | 50.63690 | 5.03737 | 31006 ft | 370 kts | 110° |
| 2026-05-05 18:36 | 50.62899 | 5.07575 | 30648 ft | 367 kts | 110° |
| 2026-05-05 18:36 | 50.62116 | 5.11377 | 30306 ft | 364 kts | 110° |
| 2026-05-05 18:36 | 50.61347 | 5.15111 | 29951 ft | 361 kts | 110° |
| 2026-05-05 18:36 | 50.60565 | 5.18904 | 29550 ft | 358 kts | 110° |
| 2026-05-05 18:37 | 50.59800 | 5.22605 | 29199 ft | 354 kts | 110° |
| 2026-05-05 18:37 | 50.59041 | 5.26279 | 28823 ft | 350 kts | 110° |
| 2026-05-05 18:37 | 50.58290 | 5.29904 | 28459 ft | 347 kts | 110° |
| 2026-05-05 18:37 | 50.57546 | 5.33492 | 28108 ft | 344 kts | 110° |
| 2026-05-05 18:38 | 50.56806 | 5.37052 | 27740 ft | 341 kts | 110° |
| 2026-05-05 18:38 | 50.56072 | 5.40576 | 27389 ft | 338 kts | 110° |
| 2026-05-05 18:38 | 50.55340 | 5.44081 | 27035 ft | 336 kts | 110° |
| 2026-05-05 18:38 | 50.54622 | 5.47520 | 26686 ft | 334 kts | 110° |
| 2026-05-05 18:39 | 50.53890 | 5.51023 | 26344 ft | 332 kts | 110° |
| 2026-05-05 18:39 | 50.53170 | 5.54457 | 26005 ft | 330 kts | 110° |
| 2026-05-05 18:39 | 50.52459 | 5.57840 | 25876 ft | 323 kts | 110° |
| 2026-05-05 18:39 | 50.51727 | 5.61234 | 25607 ft | 335 kts | 113° |
| 2026-05-05 18:40 | 50.50665 | 5.64543 | 25394 ft | 344 kts | 124° |
| 2026-05-05 18:40 | 50.49329 | 5.67642 | 25162 ft | 349 kts | 125° |
| 2026-05-05 18:40 | 50.47947 | 5.70834 | 24911 ft | 349 kts | 125° |
| 2026-05-05 18:40 | 50.46594 | 5.73994 | 24670 ft | 348 kts | 124° |
| 2026-05-05 18:41 | 50.45273 | 5.77101 | 24423 ft | 347 kts | 124° |
| 2026-05-05 18:41 | 50.43938 | 5.80244 | 24185 ft | 346 kts | 124° |
| 2026-05-05 18:41 | 50.42610 | 5.83375 | 23950 ft | 345 kts | 124° |
| 2026-05-05 18:41 | 50.41283 | 5.86504 | 23717 ft | 344 kts | 124° |
| 2026-05-05 18:42 | 50.39958 | 5.89625 | 23481 ft | 343 kts | 124° |
| 2026-05-05 18:42 | 50.38639 | 5.92728 | 23207 ft | 342 kts | 124° |
| 2026-05-05 18:42 | 50.37321 | 5.95826 | 22932 ft | 341 kts | 124° |
| 2026-05-05 18:42 | 50.36004 | 5.98916 | 22659 ft | 340 kts | 124° |
| 2026-05-05 18:43 | 50.34692 | 6.01995 | 22391 ft | 339 kts | 124° |
| 2026-05-05 18:43 | 50.33383 | 6.05060 | 22121 ft | 338 kts | 124° |
| 2026-05-05 18:43 | 50.32078 | 6.08112 | 21853 ft | 336 kts | 125° |
| 2026-05-05 18:43 | 50.30806 | 6.11168 | 21575 ft | 336 kts | 120° |
| 2026-05-05 18:44 | 50.29868 | 6.14505 | 21308 ft | 336 kts | 109° |
| 2026-05-05 18:44 | 50.29341 | 6.18060 | 21054 ft | 335 kts | 100° |
| 2026-05-05 18:44 | 50.28999 | 6.21657 | 20803 ft | 334 kts | 99° |
| 2026-05-05 18:44 | 50.28657 | 6.25249 | 20542 ft | 334 kts | 100° |
| 2026-05-05 18:45 | 50.28303 | 6.28829 | 20263 ft | 333 kts | 100° |
| 2026-05-05 18:45 | 50.27933 | 6.32397 | 20032 ft | 332 kts | 101° |
| 2026-05-05 18:45 | 50.27552 | 6.35948 | 19781 ft | 331 kts | 101° |
| 2026-05-05 18:45 | 50.27169 | 6.39493 | 19536 ft | 330 kts | 101° |
| 2026-05-05 18:46 | 50.26786 | 6.43028 | 19301 ft | 330 kts | 101° |
| 2026-05-05 18:46 | 50.26403 | 6.46555 | 19045 ft | 329 kts | 101° |
| 2026-05-05 18:46 | 50.26018 | 6.50089 | 18804 ft | 329 kts | 101° |
| 2026-05-05 18:46 | 50.25635 | 6.53613 | 18568 ft | 329 kts | 101° |
| 2026-05-05 18:47 | 50.25252 | 6.57126 | 18333 ft | 329 kts | 101° |
| 2026-05-05 18:47 | 50.24868 | 6.60643 | 18109 ft | 327 kts | 101° |
| 2026-05-05 18:47 | 50.24489 | 6.64106 | 17733 ft | 320 kts | 101° |
| 2026-05-05 18:47 | 50.24114 | 6.67519 | 17145 ft | 318 kts | 101° |
| 2026-05-05 18:48 | 50.23737 | 6.70927 | 16542 ft | 318 kts | 101° |
| 2026-05-05 18:48 | 50.23364 | 6.74311 | 16002 ft | 315 kts | 101° |
| 2026-05-05 18:48 | 50.22992 | 6.77672 | 15476 ft | 313 kts | 101° |
| 2026-05-05 18:48 | 50.22621 | 6.81007 | 14966 ft | 310 kts | 102° |
| 2026-05-05 18:49 | 50.22233 | 6.84304 | 14461 ft | 307 kts | 106° |
| 2026-05-05 18:49 | 50.21368 | 6.87285 | 14121 ft | 299 kts | 123° |
| 2026-05-05 18:49 | 50.20294 | 6.90076 | 13752 ft | 301 kts | 124° |
| 2026-05-05 18:49 | 50.19213 | 6.92866 | 13423 ft | 300 kts | 124° |
| 2026-05-05 18:50 | 50.18140 | 6.95654 | 13094 ft | 299 kts | 123° |
| 2026-05-05 18:50 | 50.17072 | 6.98445 | 12698 ft | 301 kts | 123° |
| 2026-05-05 18:50 | 50.16005 | 7.01246 | 12353 ft | 300 kts | 123° |
| 2026-05-05 18:50 | 50.14944 | 7.04039 | 12019 ft | 299 kts | 123° |
| 2026-05-05 18:51 | 50.13881 | 7.06839 | 11641 ft | 300 kts | 123° |
| 2026-05-05 18:51 | 50.12817 | 7.09644 | 11262 ft | 301 kts | 123° |
| 2026-05-05 18:51 | 50.11750 | 7.12456 | 10987 ft | 299 kts | 123° |
| 2026-05-05 18:51 | 50.10697 | 7.15224 | 10756 ft | 294 kts | 123° |
| 2026-05-05 18:52 | 50.09654 | 7.17979 | 10592 ft | 288 kts | 121° |
| 2026-05-05 18:52 | 50.09074 | 7.20885 | 10429 ft | 287 kts | 93° |
| 2026-05-05 18:52 | 50.09408 | 7.23888 | 10228 ft | 283 kts | 62° |
| 2026-05-05 18:52 | 50.10487 | 7.26367 | 10114 ft | 275 kts | 47° |
| 2026-05-05 18:53 | 50.11963 | 7.28203 | 9897 ft | 269 kts | 31° |
| 2026-05-05 18:53 | 50.13559 | 7.29735 | 9629 ft | 269 kts | 29° |
| 2026-05-05 18:53 | 50.15161 | 7.31244 | 9343 ft | 268 kts | 29° |
| 2026-05-05 18:53 | 50.16749 | 7.32753 | 9090 ft | 267 kts | 30° |
| 2026-05-05 18:54 | 50.18318 | 7.34282 | 8839 ft | 265 kts | 31° |
| 2026-05-05 18:54 | 50.19874 | 7.35816 | 8587 ft | 264 kts | 31° |
| 2026-05-05 18:54 | 50.21418 | 7.37347 | 8338 ft | 262 kts | 32° |
| 2026-05-05 18:54 | 50.22957 | 7.38877 | 8076 ft | 262 kts | 32° |
| 2026-05-05 18:55 | 50.24329 | 7.40718 | 7787 ft | 261 kts | 57° |
| 2026-05-05 18:55 | 50.24921 | 7.43332 | 7549 ft | 256 kts | 88° |
| 2026-05-05 18:55 | 50.24657 | 7.46033 | 7304 ft | 250 kts | 114° |
| 2026-05-05 18:55 | 50.23852 | 7.48414 | 7051 ft | 247 kts | 124° |
| 2026-05-05 18:56 | 50.22747 | 7.50395 | 6882 ft | 238 kts | 151° |
| 2026-05-05 18:56 | 50.21233 | 7.51171 | 6716 ft | 227 kts | 180° |
| 2026-05-05 18:56 | 50.19694 | 7.50859 | 6492 ft | 222 kts | 201° |
| 2026-05-05 18:56 | 50.18780 | 7.50169 | 6346 ft | 220 kts | 212° |
| 2026-05-05 18:57 | 50.17506 | 7.48854 | 6114 ft | 219 kts | 215° |
| 2026-05-05 18:57 | 50.16241 | 7.47532 | 5862 ft | 219 kts | 214° |
| 2026-05-05 18:57 | 50.14961 | 7.46239 | 5626 ft | 219 kts | 214° |
| 2026-05-05 18:57 | 50.13676 | 7.44965 | 5382 ft | 219 kts | 213° |
| 2026-05-05 18:58 | 50.12421 | 7.43726 | 5349 ft | 207 kts | 214° |
| 2026-05-05 18:58 | 50.11226 | 7.42546 | 5208 ft | 201 kts | 213° |
| 2026-05-05 18:58 | 50.10047 | 7.41382 | 4955 ft | 199 kts | 213° |
| 2026-05-05 18:58 | 50.08894 | 7.40244 | 4696 ft | 193 kts | 213° |
| 2026-05-05 18:59 | 50.07775 | 7.39139 | 4433 ft | 186 kts | 213° |
| 2026-05-05 18:59 | 50.06698 | 7.38077 | 4177 ft | 180 kts | 213° |
| 2026-05-05 18:59 | 50.05658 | 7.37051 | 3938 ft | 175 kts | 213° |
| 2026-05-05 18:59 | 50.04652 | 7.36055 | 3701 ft | 166 kts | 213° |
| 2026-05-05 19:00 | 50.03709 | 7.35127 | 3517 ft | 152 kts | 213° |
| 2026-05-05 19:00 | 50.02834 | 7.34263 | 3296 ft | 147 kts | 213° |
| 2026-05-05 19:00 | 50.01973 | 7.33410 | 3112 ft | 147 kts | 213° |
| 2026-05-05 19:00 | 50.01105 | 7.32552 | 2902 ft | 148 kts | 213° |
| 2026-05-05 19:01 | 50.00238 | 7.31696 | 2719 ft | 148 kts | 213° |
| 2026-05-05 19:01 | 49.99365 | 7.30833 | 2506 ft | 149 kts | 213° |
| 2026-05-05 19:01 | 49.98490 | 7.29968 | 2286 ft | 150 kts | 213° |
| 2026-05-05 19:01 | 49.97610 | 7.29099 | 2070 ft | 150 kts | 213° |
| 2026-05-05 19:02 | 49.96733 | 7.28233 | 1851 ft | 150 kts | 213° |
| 2026-05-05 19:02 | 49.95855 | 7.27377 | 1669 ft | 148 kts | 214° |
| 2026-05-05 19:02 | 49.95000 | 7.26523 | 1614 ft | 138 kts | 212° |
| 2026-05-05 19:02 | 49.94284 | 7.25808 | 1630 ft | 90 kts | 212° |
| 2026-05-05 19:03 | 49.94052 | 7.25588 | 1630 ft | 19 kts | 212° |
| 2026-05-05 19:03 | 49.93937 | 7.25554 | 1630 ft | 18 kts | 138° |
| 2026-05-05 19:03 | 49.93869 | 7.25704 | 1632 ft | 17 kts | 125° |
| 2026-05-05 19:03 | 49.93820 | 7.25825 | 1633 ft | 11 kts | 118° |
| 2026-05-05 19:04 | 49.93855 | 7.25919 | 1632 ft | 11 kts | 35° |
| 2026-05-05 19:04 | 49.93919 | 7.25987 | 1629 ft | 11 kts | 32° |
| 2026-05-05 19:04 | 49.93984 | 7.26048 | 1629 ft | 11 kts | 31° |
| 2026-05-05 19:04 | 49.94051 | 7.26115 | 1628 ft | 13 kts | 33° |
| 2026-05-05 19:05 | 49.94141 | 7.26206 | 1629 ft | 18 kts | 33° |
| 2026-05-05 19:05 | 49.94254 | 7.26323 | 1630 ft | 22 kts | 33° |
| 2026-05-05 19:05 | 49.94387 | 7.26459 | 1626 ft | 23 kts | 33° |
| 2026-05-05 19:05 | 49.94498 | 7.26573 | 1618 ft | 18 kts | 34° |
| 2026-05-05 19:06 | 49.94599 | 7.26640 | 1622 ft | 15 kts | 349° |
| 2026-05-05 19:06 | 49.94693 | 7.26693 | 1617 ft | 15 kts | 32° |
| 2026-05-05 19:06 | 49.94777 | 7.26775 | 1620 ft | 14 kts | 32° |
| 2026-05-05 19:06 | 49.94844 | 7.26855 | 1616 ft | 9 kts | 70° |
| 2026-05-05 19:07 | 49.94820 | 7.26948 | 1614 ft | 8 kts | 116° |
| 2026-05-05 19:07 | 49.94835 | 7.26993 | 1613 ft | 2 kts | 34° |
| 2026-05-05 19:07 | 49.94848 | 7.27005 | 1615 ft | 3 kts | 32° |
| 2026-05-05 19:07 | 49.94849 | 7.27007 | 1614 ft | 0 kts | 32° |